Terminal Aerodrome Forecast
Issued by NWS

Current Version | Previous Version | Graphics & Text | Print | Product List | Glossary On
Versions: 1 2 3 4 5 6 7 8 9 10 11 12 13 14 15 16 17 18 19 20 21 22 23 24 25 26
000
FTUS41 KRLX 191400 AAA
TAFCKB
TAF AMD
KCKB 191455Z 1915/2012 11004KT P6SM SCT040
     FM200200 15004KT P6SM FEW050
     FM200800 00000KT 6SM BR SCT050=

USA.gov is the U.S. government's official web portal to all federal, state and local government web resources and services.